createdAt,value
2018-03-31T00:00:54.614Z,98586.09
2018-03-31T00:03:21.484Z,98582.93
2018-03-31T00:05:48.404Z,98574.65
2018-03-31T00:08:15.800Z,98571.27
2018-03-31T00:10:42.697Z,98573.31
2018-03-31T00:13:10.105Z,98565.90
2018-03-31T00:15:37.020Z,98556.50
2018-03-31T00:18:03.911Z,98552.10
2018-03-31T00:20:30.774Z,98552.22
2018-03-31T00:22:57.668Z,98548.33
2018-03-31T00:25:24.569Z,98545.78
2018-03-31T00:27:51.420Z,98546.78
2018-03-31T00:30:18.353Z,98537.11
2018-03-31T00:32:46.092Z,98533.72
2018-03-31T00:35:13.631Z,98534.75
2018-03-31T00:37:40.488Z,98538.11
2018-03-31T00:40:07.352Z,98537.16
2018-03-31T00:42:34.277Z,98536.44
2018-03-31T00:45:01.112Z,98544.20
2018-03-31T00:47:27.960Z,98542.34
2018-03-31T00:49:54.807Z,98542.14
2018-03-31T00:52:21.661Z,98541.30
2018-03-31T00:54:48.511Z,98548.23
2018-03-31T00:57:16.111Z,98549.62
2018-03-31T00:59:43.354Z,98560.39
2018-03-31T01:02:10.294Z,98562.08
2018-03-31T01:04:37.083Z,98564.40
2018-03-31T01:07:03.944Z,98563.17
2018-03-31T01:09:30.782Z,98556.59
2018-03-31T01:11:58.274Z,98544.20
2018-03-31T01:14:25.135Z,98533.52
2018-03-31T01:16:52.000Z,98547.19
2018-03-31T01:19:20.282Z,98548.38
2018-03-31T01:21:47.135Z,98555.95
2018-03-31T01:24:13.968Z,98553.33
2018-03-31T01:26:40.834Z,98557.64
2018-03-31T01:29:07.678Z,98562.94
2018-03-31T01:31:34.532Z,98553.95
2018-03-31T01:34:01.446Z,98543.89
2018-03-31T01:36:28.423Z,98552.76
2018-03-31T01:38:55.302Z,98556.45
2018-03-31T01:41:22.216Z,98558.53
2018-03-31T01:43:49.961Z,98550.96
2018-03-31T01:46:16.848Z,98557.97
2018-03-31T01:48:43.705Z,98556.06
2018-03-31T01:51:10.528Z,98563.00
2018-03-31T01:53:37.401Z,98562.33
2018-03-31T01:56:04.322Z,98558.61
2018-03-31T01:58:31.232Z,98558.17
2018-03-31T02:00:58.068Z,98563.27
2018-03-31T02:03:25.257Z,98557.47
2018-03-31T02:05:52.456Z,98560.69
2018-03-31T02:08:20.128Z,98563.81
2018-03-31T02:10:46.970Z,98554.25
2018-03-31T02:13:13.828Z,98551.77
2018-03-31T02:15:40.681Z,98551.41
2018-03-31T02:18:07.617Z,98551.99
2018-03-31T02:20:34.432Z,98551.15
2018-03-31T02:23:01.276Z,98550.70
2018-03-31T02:25:31.860Z,98555.47
2018-03-31T02:27:59.167Z,98548.62
2018-03-31T02:30:27.238Z,98554.09
2018-03-31T02:32:54.091Z,98551.35
2018-03-31T02:35:20.930Z,98555.94
2018-03-31T02:37:47.786Z,98557.67
2018-03-31T02:40:14.650Z,98552.23
2018-03-31T02:42:41.511Z,98548.18
2018-03-31T02:45:08.395Z,98542.81
2018-03-31T02:47:35.232Z,98549.03
2018-03-31T02:50:02.217Z,98543.19
2018-03-31T02:52:29.110Z,98545.64
2018-03-31T02:54:57.677Z,98546.83
2018-03-31T02:57:24.552Z,98551.15
2018-03-31T02:59:51.595Z,98549.54
2018-03-31T03:02:19.208Z,98548.39
2018-03-31T03:04:46.090Z,98542.45
2018-03-31T03:07:12.955Z,98541.77
2018-03-31T03:09:39.794Z,98544.73
2018-03-31T03:12:06.637Z,98539.75
2018-03-31T03:14:33.714Z,98536.69
2018-03-31T03:17:00.603Z,98539.11
2018-03-31T03:19:27.464Z,98527.75
2018-03-31T03:21:54.366Z,98535.14
2018-03-31T03:24:21.209Z,98539.97
2018-03-31T03:26:48.065Z,98527.94
2018-03-31T03:29:15.032Z,98524.70
2018-03-31T03:31:41.874Z,98524.67
2018-03-31T03:34:08.731Z,98527.86
2018-03-31T03:36:35.659Z,98528.36
2018-03-31T03:39:03.268Z,98521.00
2018-03-31T03:41:31.185Z,98516.96
2018-03-31T03:43:58.120Z,98517.48
2018-03-31T03:46:25.152Z,98520.08
2018-03-31T03:48:51.994Z,98524.78
2018-03-31T03:51:18.958Z,98524.39
2018-03-31T03:53:45.901Z,98530.66
2018-03-31T03:56:12.808Z,98531.75
2018-03-31T03:58:39.701Z,98535.09
2018-03-31T04:01:06.538Z,98535.48
2018-03-31T04:03:34.188Z,98533.06
2018-03-31T04:06:01.103Z,98536.33
2018-03-31T04:08:28.001Z,98531.41
2018-03-31T04:10:54.852Z,98530.70
2018-03-31T04:13:21.771Z,98528.36
2018-03-31T04:15:48.620Z,98531.88
2018-03-31T04:18:15.487Z,98537.98
2018-03-31T04:20:42.387Z,98542.46
2018-03-31T04:23:09.229Z,98542.21
2018-03-31T04:25:36.144Z,98540.22
2018-03-31T04:28:03.018Z,98539.88
2018-03-31T04:30:30.793Z,98542.64
2018-03-31T04:32:57.684Z,98547.25
2018-03-31T04:35:24.546Z,98542.30
2018-03-31T04:37:51.441Z,98544.08
2018-03-31T04:40:18.300Z,98548.50
2018-03-31T04:42:45.624Z,98553.66
2018-03-31T04:45:12.530Z,98551.95
2018-03-31T04:47:39.437Z,98558.80
2018-03-31T04:50:06.290Z,98551.40
2018-03-31T04:52:33.293Z,98558.00
2018-03-31T04:55:00.156Z,98560.05
2018-03-31T04:57:27.029Z,98557.12
2018-03-31T04:59:53.883Z,98557.35
2018-03-31T05:02:20.935Z,98556.84
2018-03-31T05:04:47.846Z,98554.30
2018-03-31T05:07:14.663Z,98552.56
2018-03-31T05:09:41.536Z,98557.55
2018-03-31T05:12:08.385Z,98549.23
2018-03-31T05:14:36.677Z,98549.05
2018-03-31T05:17:03.515Z,98549.38
2018-03-31T05:19:30.373Z,98552.48
2018-03-31T05:21:57.501Z,98548.28
2018-03-31T05:24:24.389Z,98543.21
2018-03-31T05:26:52.181Z,98545.53
2018-03-31T05:29:19.027Z,98548.50
2018-03-31T05:31:45.957Z,98549.59
2018-03-31T05:34:12.828Z,98550.72
2018-03-31T05:36:39.661Z,98552.55
2018-03-31T05:39:06.509Z,98557.58
2018-03-31T05:41:33.375Z,98551.27
2018-03-31T05:44:00.224Z,98558.82
2018-03-31T05:46:27.081Z,98560.37
2018-03-31T05:48:53.943Z,98567.30
2018-03-31T05:51:21.238Z,98572.93
2018-03-31T05:53:48.117Z,98571.30
2018-03-31T05:56:15.016Z,98568.00
2018-03-31T05:58:41.858Z,98567.80
2018-03-31T06:01:08.701Z,98574.85
2018-03-31T06:03:35.563Z,98577.62
2018-03-31T06:06:02.400Z,98578.16
2018-03-31T06:08:29.263Z,98580.17
2018-03-31T06:10:56.101Z,98581.63
2018-03-31T06:13:22.958Z,98578.25
2018-03-31T06:15:49.806Z,98575.70
2018-03-31T06:18:16.639Z,98578.77
2018-03-31T06:20:43.557Z,98579.66
2018-03-31T06:23:10.410Z,98574.20
2018-03-31T06:25:38.671Z,98583.33
2018-03-31T06:28:06.082Z,98579.52
2018-03-31T06:30:33.007Z,98573.11
2018-03-31T06:33:00.026Z,98571.19
2018-03-31T06:35:26.885Z,98575.05
2018-03-31T06:37:53.768Z,98573.73
2018-03-31T06:40:22.864Z,98572.78
2018-03-31T06:42:49.727Z,98580.36
2018-03-31T06:45:18.251Z,98579.95
2018-03-31T06:47:45.259Z,98587.08
2018-03-31T06:50:12.143Z,98586.73
2018-03-31T06:52:39.045Z,98583.46
2018-03-31T06:55:05.966Z,98592.02
2018-03-31T06:57:32.884Z,98590.09
2018-03-31T06:59:59.725Z,98591.14
2018-03-31T07:02:27.089Z,98588.52
2018-03-31T07:04:54.025Z,98586.14
2018-03-31T07:07:21.632Z,98588.22
2018-03-31T07:09:48.601Z,98587.41
2018-03-31T07:12:15.440Z,98590.16
2018-03-31T07:14:42.322Z,98582.45
2018-03-31T07:17:09.250Z,98578.69
2018-03-31T07:19:36.293Z,98583.13
2018-03-31T07:22:03.161Z,98582.91
2018-03-31T07:24:30.026Z,98582.28
2018-03-31T07:26:56.902Z,98576.73
2018-03-31T07:29:23.870Z,98579.05
2018-03-31T07:31:51.648Z,98573.77
2018-03-31T07:34:18.771Z,98579.34
2018-03-31T07:36:45.846Z,98573.49
2018-03-31T07:39:13.443Z,98576.00
2018-03-31T07:41:40.369Z,98576.66
2018-03-31T07:44:07.609Z,98576.54
2018-03-31T07:46:34.857Z,98573.69
2018-03-31T07:49:01.703Z,98578.66
2018-03-31T07:51:28.583Z,98575.44
2018-03-31T07:53:55.489Z,98581.63
2018-03-31T07:56:22.361Z,98579.22
2018-03-31T07:58:49.207Z,98575.13
2018-03-31T08:01:17.430Z,98581.63
2018-03-31T08:03:44.287Z,98574.66
2018-03-31T08:06:11.162Z,98577.54
2018-03-31T08:08:37.998Z,98580.22
2018-03-31T08:11:05.228Z,98577.30
2018-03-31T08:13:33.921Z,98580.11
2018-03-31T08:16:00.785Z,98576.43
2018-03-31T08:18:27.788Z,98581.49
2018-03-31T08:20:56.288Z,98585.77
2018-03-31T08:23:23.140Z,98587.66
2018-03-31T08:25:50.010Z,98586.69
2018-03-31T08:28:17.042Z,98581.66
2018-03-31T08:30:43.916Z,98588.24
2018-03-31T08:33:10.807Z,98586.14
2018-03-31T08:35:37.648Z,98578.44
2018-03-31T08:38:04.765Z,98583.54
2018-03-31T08:40:31.740Z,98576.95
2018-03-31T08:42:58.707Z,98573.97
2018-03-31T08:45:25.574Z,98572.67
2018-03-31T08:47:52.420Z,98580.95
2018-03-31T08:50:19.301Z,98572.64
2018-03-31T08:52:47.834Z,98575.55
2018-03-31T08:55:14.753Z,98579.09
2018-03-31T08:57:41.611Z,98581.70
2018-03-31T09:00:08.584Z,98576.50
2018-03-31T09:02:35.440Z,98584.51
2018-03-31T09:05:02.287Z,98586.04
2018-03-31T09:07:29.139Z,98581.32
2018-03-31T09:09:56.104Z,98582.39
2018-03-31T09:12:22.953Z,98588.86
2018-03-31T09:14:49.804Z,98588.35
2018-03-31T09:17:16.747Z,98592.36
2018-03-31T09:19:43.627Z,98596.20
2018-03-31T09:22:10.803Z,98587.11
2018-03-31T09:24:37.739Z,98594.03
2018-03-31T09:27:04.577Z,98591.43
2018-03-31T09:29:31.466Z,98588.12
2018-03-31T09:31:59.367Z,98585.02
2018-03-31T09:34:26.224Z,98587.55
2018-03-31T09:36:53.085Z,98579.32
2018-03-31T09:39:19.924Z,98584.98
2018-03-31T09:41:46.755Z,98580.42
2018-03-31T09:44:13.669Z,98578.05
2018-03-31T09:46:40.601Z,98574.64
2018-03-31T09:49:07.387Z,98574.17
2018-03-31T09:51:34.238Z,98581.81
2018-03-31T09:54:01.089Z,98576.73
2018-03-31T09:56:28.043Z,98578.84
2018-03-31T09:58:55.264Z,98582.38
2018-03-31T10:01:22.489Z,98587.13
2018-03-31T10:03:49.357Z,98582.11
2018-03-31T10:06:16.210Z,98585.81
2018-03-31T10:08:43.060Z,98576.14
2018-03-31T10:11:09.925Z,98574.78
2018-03-31T10:13:36.759Z,98581.76
2018-03-31T10:16:03.692Z,98583.16
2018-03-31T10:18:30.534Z,98579.39
2018-03-31T10:20:57.499Z,98582.48
2018-03-31T10:23:24.325Z,98574.91
2018-03-31T10:25:51.211Z,98569.93
2018-03-31T10:28:18.138Z,98554.73
2018-03-31T10:30:45.768Z,98557.41
2018-03-31T10:33:12.997Z,98564.62
2018-03-31T10:35:39.823Z,98556.68
2018-03-31T10:38:09.727Z,98559.53
2018-03-31T10:40:36.678Z,98558.05
2018-03-31T10:43:04.016Z,98551.08
2018-03-31T10:45:30.906Z,98548.15
2018-03-31T10:47:57.743Z,98548.98
2018-03-31T10:50:25.877Z,98547.38
2018-03-31T10:52:52.840Z,98542.66
2018-03-31T10:55:19.922Z,98537.06
2018-03-31T10:57:46.863Z,98547.55
2018-03-31T11:00:13.718Z,98529.63
2018-03-31T11:02:40.646Z,98540.83
2018-03-31T11:05:07.485Z,98531.95
2018-03-31T11:07:34.351Z,98546.86
2018-03-31T11:10:01.206Z,98544.14
2018-03-31T11:12:28.344Z,98543.41
2018-03-31T11:14:55.704Z,98537.94
2018-03-31T11:17:22.789Z,98534.94
2018-03-31T11:19:49.930Z,98539.22
2018-03-31T11:22:17.183Z,98536.23
2018-03-31T11:24:46.898Z,98537.05
2018-03-31T11:27:15.097Z,98531.56
2018-03-31T11:29:41.945Z,98532.92
2018-03-31T11:32:08.789Z,98533.33
2018-03-31T11:34:35.635Z,98523.00
2018-03-31T11:37:02.479Z,98525.92
2018-03-31T11:39:29.337Z,98529.05
2018-03-31T11:41:56.177Z,98526.38
2018-03-31T11:44:23.070Z,98526.30
2018-03-31T11:46:49.912Z,98519.46
2018-03-31T11:49:16.763Z,98513.62
2018-03-31T11:51:43.599Z,98512.73
2018-03-31T11:54:10.463Z,98512.94
2018-03-31T11:56:37.334Z,98514.28
2018-03-31T11:59:04.222Z,98517.39
2018-03-31T12:01:31.297Z,98514.16
2018-03-31T12:03:58.149Z,98521.30
2018-03-31T12:06:25.005Z,98520.64
2018-03-31T12:08:51.843Z,98528.38
2018-03-31T12:11:18.688Z,98525.06
2018-03-31T12:13:45.564Z,98521.17
2018-03-31T12:16:12.418Z,98520.02
2018-03-31T12:18:39.257Z,98518.56
2018-03-31T12:21:06.115Z,98505.05
2018-03-31T12:23:32.976Z,98497.63
2018-03-31T12:26:00.106Z,98493.12
2018-03-31T12:28:27.065Z,98491.06
2018-03-31T12:30:53.910Z,98489.03
2018-03-31T12:33:20.801Z,98482.94
2018-03-31T12:35:47.616Z,98475.04
2018-03-31T12:38:14.553Z,98479.53
2018-03-31T12:40:41.408Z,98471.33
2018-03-31T12:43:08.247Z,98483.98
2018-03-31T12:45:35.396Z,98473.78
2018-03-31T12:48:04.862Z,98469.99
2018-03-31T12:50:31.723Z,98474.56
2018-03-31T12:52:58.612Z,98476.98
2018-03-31T12:55:25.521Z,98471.02
2018-03-31T12:57:55.439Z,98469.30
2018-03-31T13:00:23.518Z,98465.53
2018-03-31T13:02:50.554Z,98469.37
2018-03-31T13:05:17.440Z,98468.55
2018-03-31T13:07:44.764Z,98466.75
2018-03-31T13:10:11.728Z,98472.79
2018-03-31T13:12:38.629Z,98470.92
2018-03-31T13:15:05.505Z,98478.84
2018-03-31T13:17:32.536Z,98472.74
2018-03-31T13:20:00.898Z,98474.03
2018-03-31T13:22:27.857Z,98478.43
2018-03-31T13:24:54.753Z,98467.66
2018-03-31T13:27:22.284Z,98472.33
2018-03-31T13:29:49.147Z,98465.75
2018-03-31T13:32:16.092Z,98469.93
2018-03-31T13:34:44.578Z,98466.95
2018-03-31T13:37:11.473Z,98467.11
2018-03-31T13:39:38.316Z,98460.69
2018-03-31T13:42:05.190Z,98452.57
2018-03-31T13:44:32.046Z,98457.23
2018-03-31T13:46:58.932Z,98457.98
2018-03-31T13:49:26.715Z,98454.77
2018-03-31T13:51:53.630Z,98459.88
2018-03-31T13:54:20.469Z,98456.10
2018-03-31T13:56:47.377Z,98455.50
2018-03-31T13:59:14.171Z,98450.16
2018-03-31T14:01:41.018Z,98449.55
2018-03-31T14:04:07.882Z,98448.99
2018-03-31T14:06:35.335Z,98453.60
2018-03-31T14:09:02.195Z,98447.81
2018-03-31T14:11:29.042Z,98443.30
2018-03-31T14:13:55.887Z,98443.69
2018-03-31T14:16:23.623Z,98436.25
2018-03-31T14:18:50.480Z,98427.55
2018-03-31T14:21:18.614Z,98441.67
2018-03-31T14:23:45.460Z,98430.08
2018-03-31T14:26:12.341Z,98428.81
2018-03-31T14:28:39.254Z,98422.11
2018-03-31T14:31:06.104Z,98451.97
2018-03-31T14:33:32.983Z,98435.14
2018-03-31T14:35:59.873Z,98440.45
2018-03-31T14:38:26.771Z,98442.53
2018-03-31T14:40:53.752Z,98439.85
2018-03-31T14:43:22.393Z,98441.79
2018-03-31T14:45:49.256Z,98425.31
2018-03-31T14:48:16.169Z,98432.51
2018-03-31T14:50:43.062Z,98434.34
2018-03-31T14:53:09.977Z,98436.89
2018-03-31T14:55:37.216Z,98444.47
2018-03-31T14:58:04.065Z,98449.19
2018-03-31T15:00:30.908Z,98443.46
2018-03-31T15:02:57.804Z,98449.16
2018-03-31T15:05:24.770Z,98454.34
2018-03-31T15:07:51.637Z,98453.65
2018-03-31T15:10:19.028Z,98446.86
2018-03-31T15:12:46.773Z,98454.56
2018-03-31T15:15:13.656Z,98454.45
2018-03-31T15:17:40.510Z,98461.77
2018-03-31T15:20:07.422Z,98460.22
2018-03-31T15:22:34.305Z,98459.02
2018-03-31T15:25:03.480Z,98464.68
2018-03-31T15:27:30.341Z,98458.70
2018-03-31T15:29:57.171Z,98464.73
2018-03-31T15:32:24.020Z,98466.38
2018-03-31T15:34:52.059Z,98465.06
2018-03-31T15:37:18.984Z,98473.42
2018-03-31T15:39:46.954Z,98464.36
2018-03-31T15:42:13.983Z,98460.70
2018-03-31T15:44:41.993Z,98468.91
2018-03-31T15:47:09.428Z,98471.73
2018-03-31T15:49:36.275Z,98469.09
2018-03-31T15:52:03.131Z,98470.25
2018-03-31T15:54:30.078Z,98471.42
2018-03-31T15:56:57.032Z,98478.52
2018-03-31T15:59:23.990Z,98469.22
2018-03-31T16:01:50.846Z,98475.44
2018-03-31T16:04:17.682Z,98462.95
2018-03-31T16:06:44.559Z,98465.55
2018-03-31T16:09:11.567Z,98475.23
2018-03-31T16:11:39.003Z,98477.45
2018-03-31T16:14:05.846Z,98468.48
2018-03-31T16:16:33.716Z,98477.02
2018-03-31T16:19:00.590Z,98479.04
2018-03-31T16:21:27.770Z,98479.38
2018-03-31T16:23:54.685Z,98477.81
2018-03-31T16:26:21.556Z,98480.22
2018-03-31T16:28:48.424Z,98482.84
2018-03-31T16:31:15.290Z,98486.86
2018-03-31T16:33:42.147Z,98488.53
2018-03-31T16:36:09.065Z,98483.23
2018-03-31T16:38:35.924Z,98483.05
2018-03-31T16:41:02.768Z,98490.16
2018-03-31T16:43:29.639Z,98491.21
2018-03-31T16:45:56.481Z,98495.44
2018-03-31T16:48:24.357Z,98500.25
2018-03-31T16:50:51.293Z,98497.64
2018-03-31T16:53:18.528Z,98496.34
2018-03-31T16:55:45.382Z,98495.55
2018-03-31T16:58:13.770Z,98499.97
2018-03-31T17:00:40.631Z,98494.15
2018-03-31T17:03:07.522Z,98496.27
2018-03-31T17:05:34.371Z,98494.58
2018-03-31T17:08:01.705Z,98503.58
2018-03-31T17:10:28.715Z,98494.06
2018-03-31T17:12:55.552Z,98497.12
2018-03-31T17:15:22.436Z,98494.26
2018-03-31T17:17:49.277Z,98503.66
2018-03-31T17:20:16.151Z,98502.28
2018-03-31T17:22:43.020Z,98504.98
2018-03-31T17:25:09.864Z,98507.80
2018-03-31T17:27:36.705Z,98514.27
2018-03-31T17:30:03.564Z,98521.20
2018-03-31T17:32:30.408Z,98521.99
2018-03-31T17:34:57.285Z,98518.09
2018-03-31T17:37:24.365Z,98522.79
2018-03-31T17:39:51.226Z,98524.14
2018-03-31T17:42:18.081Z,98520.60
2018-03-31T17:44:45.003Z,98521.91
2018-03-31T17:47:11.898Z,98522.84
2018-03-31T17:49:38.754Z,98523.28
2018-03-31T17:52:05.620Z,98527.87
2018-03-31T17:54:32.460Z,98526.67
2018-03-31T17:56:59.317Z,98531.01
2018-03-31T17:59:26.184Z,98532.88
2018-03-31T18:01:53.042Z,98542.27
2018-03-31T18:04:19.888Z,98542.23
2018-03-31T18:06:46.994Z,98547.36
2018-03-31T18:09:13.849Z,98542.57
2018-03-31T18:11:40.809Z,98543.05
2018-03-31T18:14:07.665Z,98548.65
2018-03-31T18:16:34.534Z,98550.44
2018-03-31T18:19:01.743Z,98560.25
2018-03-31T18:21:28.584Z,98559.41
2018-03-31T18:23:55.441Z,98560.68
2018-03-31T18:26:22.361Z,98571.39
2018-03-31T18:28:49.213Z,98570.53
2018-03-31T18:31:16.097Z,98573.45
2018-03-31T18:33:42.949Z,98573.44
2018-03-31T18:36:09.829Z,98572.20
2018-03-31T18:38:36.678Z,98574.80
2018-03-31T18:41:03.528Z,98577.38
2018-03-31T18:43:30.406Z,98578.15
2018-03-31T18:45:57.262Z,98585.89
2018-03-31T18:48:25.309Z,98588.42
2018-03-31T18:50:52.151Z,98587.97
2018-03-31T18:53:19.063Z,98590.10
2018-03-31T18:55:45.941Z,98590.19
2018-03-31T18:58:13.569Z,98590.18
2018-03-31T19:00:40.429Z,98594.01
2018-03-31T19:03:07.466Z,98598.23
2018-03-31T19:05:34.317Z,98602.83
2018-03-31T19:08:01.220Z,98609.67
2018-03-31T19:10:28.091Z,98612.28
2018-03-31T19:12:54.987Z,98616.84
2018-03-31T19:15:21.898Z,98621.55
2018-03-31T19:17:48.748Z,98619.00
2018-03-31T19:20:18.421Z,98625.01
2018-03-31T19:22:45.270Z,98620.36
2018-03-31T19:25:17.755Z,98632.69
2018-03-31T19:27:45.022Z,98635.59
2018-03-31T19:30:11.884Z,98635.55
2018-03-31T19:32:38.740Z,98638.15
2018-03-31T19:35:05.653Z,98636.44
2018-03-31T19:37:33.985Z,98641.02
2018-03-31T19:40:00.847Z,98641.16
2018-03-31T19:42:27.762Z,98641.67
2018-03-31T19:44:55.046Z,98647.98
2018-03-31T19:47:21.881Z,98648.81
2018-03-31T19:49:48.733Z,98653.50
2018-03-31T19:52:15.613Z,98651.84
2018-03-31T19:54:42.496Z,98657.83
2018-03-31T19:57:09.346Z,98659.80
2018-03-31T19:59:36.201Z,98659.50
2018-03-31T20:02:03.102Z,98659.80
2018-03-31T20:04:29.980Z,98657.72
2018-03-31T20:06:56.846Z,98665.19
2018-03-31T20:09:24.669Z,98668.73
2018-03-31T20:11:51.612Z,98672.39
2018-03-31T20:14:18.528Z,98677.93
2018-03-31T20:16:45.365Z,98673.16
2018-03-31T20:19:12.213Z,98676.62
2018-03-31T20:21:39.112Z,98677.37
2018-03-31T20:24:05.961Z,98681.74
2018-03-31T20:26:33.326Z,98688.59
2018-03-31T20:29:00.369Z,98691.03
2018-03-31T20:31:27.289Z,98699.39
2018-03-31T20:33:54.951Z,98702.70
2018-03-31T20:36:21.842Z,98701.04
2018-03-31T20:38:49.150Z,98698.80
2018-03-31T20:41:15.988Z,98703.31
2018-03-31T20:43:43.690Z,98705.13
2018-03-31T20:46:12.455Z,98704.70
2018-03-31T20:48:39.349Z,98703.38
2018-03-31T20:51:07.038Z,98701.91
2018-03-31T20:53:33.910Z,98708.58
2018-03-31T20:56:00.813Z,98708.15
2018-03-31T20:58:27.651Z,98707.26
2018-03-31T21:00:57.516Z,98709.90
2018-03-31T21:03:25.225Z,98711.73
2018-03-31T21:05:52.092Z,98708.39
2018-03-31T21:08:19.216Z,98712.03
2018-03-31T21:10:46.057Z,98720.23
2018-03-31T21:13:12.927Z,98727.54
2018-03-31T21:15:39.797Z,98730.61
2018-03-31T21:18:07.862Z,98734.80
2018-03-31T21:20:34.690Z,98735.71
2018-03-31T21:23:01.532Z,98743.31
2018-03-31T21:25:28.385Z,98740.41
2018-03-31T21:27:55.327Z,98742.84
2018-03-31T21:30:23.685Z,98750.31
2018-03-31T21:32:50.811Z,98752.05
2018-03-31T21:35:17.692Z,98751.33
2018-03-31T21:37:44.638Z,98747.98
2018-03-31T21:40:11.506Z,98744.66
2018-03-31T21:42:38.362Z,98752.00
2018-03-31T21:45:05.258Z,98754.34
2018-03-31T21:47:32.128Z,98758.30
2018-03-31T21:50:01.934Z,98759.17
2018-03-31T21:52:28.831Z,98761.52
2018-03-31T21:54:56.560Z,98757.34
2018-03-31T21:57:23.469Z,98758.52
2018-03-31T21:59:50.641Z,98760.59
2018-03-31T22:02:19.378Z,98760.33
2018-03-31T22:04:46.232Z,98762.00
2018-03-31T22:07:13.110Z,98767.56
2018-03-31T22:09:39.970Z,98770.77
2018-03-31T22:12:07.179Z,98768.77
2018-03-31T22:14:39.641Z,98767.00
2018-03-31T22:17:06.491Z,98766.66
2018-03-31T22:19:33.397Z,98776.19
2018-03-31T22:22:00.287Z,98781.53
2018-03-31T22:24:28.061Z,98773.22
2018-03-31T22:26:55.633Z,98774.00
2018-03-31T22:29:22.949Z,98774.66
2018-03-31T22:31:49.845Z,98780.03
2018-03-31T22:34:16.712Z,98787.52
2018-03-31T22:36:43.562Z,98786.17
2018-03-31T22:39:10.625Z,98790.30
2018-03-31T22:41:37.452Z,98791.91
2018-03-31T22:44:04.311Z,98797.16
2018-03-31T22:46:31.195Z,98792.90
2018-03-31T22:48:58.034Z,98797.23
2018-03-31T22:51:25.702Z,98799.48
2018-03-31T22:53:52.624Z,98802.19
2018-03-31T22:56:19.468Z,98802.27
2018-03-31T22:58:46.341Z,98801.48
2018-03-31T23:01:13.194Z,98805.54
2018-03-31T23:03:40.065Z,98807.40
2018-03-31T23:06:06.924Z,98820.74
2018-03-31T23:08:33.778Z,98823.83
2018-03-31T23:11:00.666Z,98826.10
2018-03-31T23:13:27.510Z,98831.81
2018-03-31T23:15:54.346Z,98846.80
2018-03-31T23:18:21.222Z,98843.13
2018-03-31T23:20:48.171Z,98850.73
2018-03-31T23:23:15.423Z,98847.86
2018-03-31T23:25:42.279Z,98855.05
2018-03-31T23:28:09.396Z,98854.20
2018-03-31T23:30:36.938Z,98858.32
2018-03-31T23:33:04.603Z,98855.50
2018-03-31T23:35:31.476Z,98862.42
2018-03-31T23:37:58.322Z,98865.66
2018-03-31T23:40:25.985Z,98867.82
2018-03-31T23:42:52.835Z,98865.19
2018-03-31T23:45:19.729Z,98857.98
2018-03-31T23:47:47.477Z,98860.94
2018-03-31T23:50:14.520Z,98864.28
2018-03-31T23:52:41.382Z,98867.68
2018-03-31T23:55:08.230Z,98867.46
2018-03-31T23:57:35.110Z,98863.61
